Time;durP1;ratioP1;P1;durP2;ratioP2;P2;SDS_P1;SDS_P2;PMS_P1;PMS_P2;Temp;Humidity;BMP_temperature;BMP_pressure;BME280_temperature;BME280_humidity;BME280_pressure;Samples;Min_cycle;Max_cycle;Signal;HPM_P1;HPM_P2
2022/05/15 00:09:33;;;;;;;15.80;7.20;;;;;;;7.31;66.25;99695.82;426303;1284;141493;-47
2022/05/15 00:19:39;;;;;;;8.50;6.40;;;;;;;7.14;66.44;99702.75;426575;1285;141501;-46
2022/05/15 00:29:45;;;;;;;9.10;5.80;;;;;;;7.00;66.89;99720.77;426814;1284;141513;-46
2022/05/15 00:39:50;;;;;;;11.30;7.70;;;;;;;6.94;67.54;99725.42;426744;1285;145894;-47
2022/05/15 00:49:57;;;;;;;12.60;7.80;;;;;;;6.83;67.42;99717.61;427264;1283;145706;-47
2022/05/15 01:00:09;;;;;;;12.30;9.00;;;;;;;6.67;67.49;99721.23;427637;1284;141378;-46
2022/05/15 01:10:16;;;;;;;12.30;8.90;;;;;;;6.58;68.02;99732.45;429312;1284;142105;-46
2022/05/15 01:20:26;;;;;;;13.50;8.20;;;;;;;6.47;68.06;99736.92;427538;1285;142580;-45
2022/05/15 01:30:33;;;;;;;15.30;8.50;;;;;;;6.36;68.19;99734.13;426656;1284;142040;-46
2022/05/15 01:40:40;;;;;;;12.10;8.10;;;;;;;6.30;68.75;99736.61;426593;1284;142630;-46
2022/05/15 01:50:46;;;;;;;10.30;7.10;;;;;;;6.34;68.84;99742.36;426380;1284;142058;-45
2022/05/15 02:00:52;;;;;;;12.00;7.70;;;;;;;6.43;69.38;99742.15;426383;1284;144725;-48
2022/05/15 02:10:58;;;;;;;12.50;7.00;;;;;;;6.49;69.40;99744.16;425860;1284;142453;-49
2022/05/15 02:21:04;;;;;;;11.20;6.50;;;;;;;6.59;69.04;99736.58;427131;1285;142208;-51
2022/05/15 02:31:10;;;;;;;15.50;7.70;;;;;;;6.35;69.00;99738.65;426948;1284;142332;-48
2022/05/15 02:41:16;;;;;;;7.50;5.20;;;;;;;6.15;69.42;99743.37;426391;1284;142479;-50
2022/05/15 02:51:22;;;;;;;8.50;6.50;;;;;;;6.00;69.55;99749.02;427543;1285;146022;-48
2022/05/15 03:01:28;;;;;;;9.70;6.40;;;;;;;5.97;69.50;99752.79;427489;1284;142636;-52
2022/05/15 03:11:34;;;;;;;10.10;6.70;;;;;;;6.09;70.28;99756.14;426972;1284;142988;-48
2022/05/15 03:21:39;;;;;;;9.70;6.40;;;;;;;6.33;70.76;99757.55;426290;1285;141274;-50
2022/05/15 03:31:46;;;;;;;11.50;8.10;;;;;;;6.58;70.76;99767.24;426600;1284;142201;-48
2022/05/15 03:41:52;;;;;;;13.40;6.20;;;;;;;6.95;70.77;99774.80;427701;1284;143224;-49
2022/05/15 03:51:58;;;;;;;9.50;6.40;;;;;;;7.30;70.52;99780.48;427421;1284;142476;-46
2022/05/15 04:02:06;;;;;;;9.10;5.30;;;;;;;7.71;70.09;99782.73;426180;1284;141738;-48
2022/05/15 04:12:13;;;;;;;9.60;5.30;;;;;;;10.50;70.11;99790.87;428871;1285;142988;-49
2022/05/15 04:22:19;;;;;;;6.60;4.90;;;;;;;18.74;60.76;99778.43;426530;1284;145707;-48
2022/05/15 04:32:24;;;;;;;9.50;4.40;;;;;;;25.17;49.98;99781.83;425513;1285;142840;-49
2022/05/15 04:42:31;;;;;;;8.30;3.90;;;;;;;23.72;43.13;99788.20;426169;1284;142995;-51
2022/05/15 04:52:37;;;;;;;9.60;4.20;;;;;;;24.98;42.12;99794.21;426140;1284;143648;-47
2022/05/15 05:02:43;;;;;;;10.30;3.90;;;;;;;30.42;36.47;99788.12;426487;1284;143294;-46
2022/05/15 05:12:49;;;;;;;7.70;3.20;;;;;;;34.16;31.18;99791.63;426841;1285;142469;-49
2022/05/15 05:22:55;;;;;;;5.10;2.30;;;;;;;35.21;27.15;99798.70;426926;1284;144090;-48
2022/05/15 05:33:01;;;;;;;3.70;2.60;;;;;;;35.53;24.59;99800.77;426986;1285;142273;-52
2022/05/15 05:43:08;;;;;;;4.40;1.90;;;;;;;35.03;23.25;99804.97;426474;1285;141835;-51
2022/05/15 05:53:14;;;;;;;5.00;2.10;;;;;;;35.29;21.55;99809.70;426637;1284;141669;-50
2022/05/15 06:13:43;;;;;;;1.90;0.90;;;;;;;37.14;19.59;99821.34;426403;1284;141577;-50
2022/05/15 06:23:49;;;;;;;2.90;1.20;;;;;;;38.61;17.92;99824.19;426868;1285;179554;-49
2022/05/15 06:33:54;;;;;;;2.20;0.80;;;;;;;35.00;18.94;99826.48;428440;1285;145440;-50
2022/05/15 06:44:00;;;;;;;2.60;1.50;;;;;;;31.53;20.15;99833.67;428383;1284;141239;-47
2022/05/15 06:54:07;;;;;;;2.90;1.30;;;;;;;25.89;23.66;99843.88;427064;1284;142218;-49
2022/05/15 07:04:12;;;;;;;4.80;1.80;;;;;;;23.61;26.69;99855.77;426491;1284;141648;-50
2022/05/15 07:14:18;;;;;;;2.10;1.00;;;;;;;25.82;26.36;99852.89;427190;1284;142013;-53
2022/05/15 07:24:25;;;;;;;2.90;0.90;;;;;;;33.06;21.85;99851.23;428852;1284;143550;-55
2022/05/15 07:34:31;;;;;;;3.90;1.30;;;;;;;34.38;18.89;99860.39;426325;1285;142746;-55
2022/05/15 07:44:37;;;;;;;1.20;1.00;;;;;;;35.15;18.20;99865.78;426991;1285;141426;-52
2022/05/15 07:54:43;;;;;;;1.20;0.60;;;;;;;35.43;17.22;99872.61;427313;1283;142834;-53
2022/05/15 08:15:13;;;;;;;1.90;0.80;;;;;;;24.04;21.08;99874.22;427107;1285;141179;-52
2022/05/15 08:25:24;;;;;;;3.10;0.90;;;;;;;20.86;24.41;99882.84;427486;1285;141225;-50
2022/05/15 08:35:31;;;;;;;4.10;0.70;;;;;;;19.65;25.90;99894.64;426966;1284;145605;-50
2022/05/15 08:45:42;;;;;;;2.20;1.20;;;;;;;19.24;26.81;99900.38;427663;1284;142195;-50
2022/05/15 08:55:54;;;;;;;1.70;1.10;;;;;;;18.95;27.70;99899.34;426609;1285;141565;-49
2022/05/15 09:06:07;;;;;;;0.60;0.60;;;;;;;18.88;28.10;99901.08;427458;1285;141685;-53
2022/05/15 09:16:27;;;;;;;1.00;0.50;;;;;;;18.56;28.82;99897.14;427080;1284;141320;-49
2022/05/15 09:26:44;;;;;;;1.10;0.50;;;;;;;18.32;29.41;99893.63;429466;1284;143771;-53
2022/05/15 09:36:52;;;;;;;1.80;0.60;;;;;;;18.12;29.71;99898.80;427695;1285;199683;-49
2022/05/15 09:47:21;;;;;;;1.60;0.80;;;;;;;18.40;30.01;99896.05;428708;1284;141047;-53
2022/05/15 09:57:29;;;;;;;1.80;0.60;;;;;;;18.44;29.71;99903.33;437303;1285;141608;-52
2022/05/15 10:07:40;;;;;;;2.90;0.70;;;;;;;18.41;29.98;99899.88;428264;1285;145446;-50
2022/05/15 10:17:51;;;;;;;2.80;0.80;;;;;;;18.31;30.26;99900.27;426977;1285;141463;-50
2022/05/15 10:28:08;;;;;;;1.40;0.50;;;;;;;18.10;30.66;99901.28;428276;1284;140323;-51
2022/05/15 10:38:28;;;;;;;4.00;1.10;;;;;;;17.78;31.23;99901.63;426506;1284;141338;-51
2022/05/15 10:48:53;;;;;;;1.00;0.90;;;;;;;17.71;31.46;99897.99;427412;1284;143051;-53
2022/05/15 10:59:07;;;;;;;2.30;0.60;;;;;;;17.84;31.79;99889.56;426344;1284;142363;-49
2022/05/15 11:09:23;;;;;;;3.50;0.80;;;;;;;17.81;31.62;99883.45;427069;1285;140785;-51
2022/05/15 11:19:37;;;;;;;1.40;0.50;;;;;;;17.69;31.53;99881.39;426096;1284;163187;-54
2022/05/15 11:29:47;;;;;;;0.80;0.50;;;;;;;17.70;31.98;99878.61;427297;1284;146093;-53
2022/05/15 11:40:00;;;;;;;4.00;0.60;;;;;;;17.83;31.64;99868.45;426945;1285;141932;-50
2022/05/15 11:50:16;;;;;;;1.90;0.50;;;;;;;17.80;31.35;99865.83;425443;1284;142965;-50
2022/05/15 12:00:32;;;;;;;2.00;0.50;;;;;;;17.87;31.33;99863.95;426988;1284;142926;-50
2022/05/15 12:10:59;;;;;;;2.60;0.60;;;;;;;18.16;31.04;99856.29;427336;1284;140901;-52
2022/05/15 12:21:09;;;;;;;2.20;0.90;;;;;;;17.95;31.14;99859.41;430012;1284;141232;-49
2022/05/15 12:31:17;;;;;;;3.20;2.10;;;;;;;18.15;31.43;99849.11;427578;1284;141532;-53
2022/05/15 12:41:46;;;;;;;1.40;1.20;;;;;;;18.25;31.15;99837.77;426275;1284;143364;-51
2022/05/15 12:51:52;;;;;;;2.20;1.00;;;;;;;18.22;30.98;99835.66;427791;1284;142013;-48
2022/05/15 13:01:58;;;;;;;1.60;0.70;;;;;;;18.29;31.01;99829.00;427264;1284;141535;-54
2022/05/15 13:12:07;;;;;;;1.30;0.80;;;;;;;18.21;31.26;99817.02;426513;1285;141301;-50
2022/05/15 13:22:19;;;;;;;1.70;0.50;;;;;;;18.16;31.09;99808.27;426855;1284;141129;-50
2022/05/15 13:32:25;;;;;;;5.70;0.90;;;;;;;18.28;31.19;99801.70;426305;1284;145954;-51
2022/05/15 13:53:14;;;;;;;2.20;0.40;;;;;;;18.28;30.98;99793.52;426014;1284;143955;-50
2022/05/15 14:03:32;;;;;;;2.60;0.50;;;;;;;18.27;30.64;99791.09;426743;1285;141143;-52
2022/05/15 14:13:48;;;;;;;;;;;;;;;18.43;30.24;99780.91;425877;1284;142093;-50
2022/05/15 14:23:54;;;;;;;0.80;0.40;;;;;;;18.42;30.20;99775.88;426999;1284;128360;-48
2022/05/15 14:34:01;;;;;;;3.70;0.50;;;;;;;18.41;30.00;99774.38;426220;1284;141974;-49
2022/05/15 15:06:12;;;;;;;2.10;0.60;;;;;;;18.51;30.74;99754.19;443655;1280;239943;-51
2022/05/15 15:16:20;;;;;;;0.70;0.30;;;;;;;18.65;30.51;99752.63;444212;1280;141304;-53
2022/05/15 15:26:27;;;;;;;3.50;0.80;;;;;;;18.65;30.41;99745.96;443336;1280;140177;-52
2022/05/15 15:36:33;;;;;;;1.90;0.50;;;;;;;18.60;30.55;99742.70;443939;1281;140765;-52
2022/05/15 15:46:39;;;;;;;1.20;0.40;;;;;;;18.60;30.56;99741.97;443642;1280;141682;-52
2022/05/15 15:56:47;;;;;;;0.90;0.40;;;;;;;18.61;30.53;99740.77;434352;1281;140789;-50
2022/05/15 16:06:53;;;;;;;1.20;0.50;;;;;;;18.56;30.48;99741.59;431729;1281;140141;-50
2022/05/15 16:16:58;;;;;;;1.30;0.50;;;;;;;18.47;30.81;99741.77;432443;1281;140616;-48
2022/05/15 16:27:08;;;;;;;2.70;0.90;;;;;;;18.38;30.94;99742.60;446428;1275;140332;-50
2022/05/15 16:37:15;;;;;;;1.00;0.60;;;;;;;18.34;31.27;99740.89;441038;1275;140633;-50
2022/05/15 16:47:21;;;;;;;2.10;0.60;;;;;;;18.24;31.53;99735.73;445793;1275;141412;-52
2022/05/15 16:57:27;;;;;;;0.60;0.30;;;;;;;18.17;31.80;99744.23;440575;1276;140410;-49
2022/05/15 17:07:32;;;;;;;0.80;0.30;;;;;;;18.26;31.97;99740.68;443854;1275;164210;-48
2022/05/15 17:17:38;;;;;;;1.90;0.70;;;;;;;18.19;32.00;99745.94;435231;1276;141933;-49
2022/05/15 17:27:44;;;;;;;1.00;0.70;;;;;;;18.06;32.36;99743.85;433060;1276;140315;-46
2022/05/15 17:37:50;;;;;;;0.60;0.60;;;;;;;17.77;32.83;99746.80;429237;1276;140815;-51
2022/05/15 17:47:57;;;;;;;1.90;0.80;;;;;;;17.44;33.32;99754.17;429505;1276;140899;-48
2022/05/15 17:58:03;;;;;;;1.20;0.80;;;;;;;17.39;33.91;99755.55;429960;1276;140314;-51
2022/05/15 18:08:09;;;;;;;2.20;1.10;;;;;;;17.15;34.25;99759.02;445254;1275;141357;-51
2022/05/15 18:18:15;;;;;;;3.10;1.00;;;;;;;16.56;35.22;99765.41;440009;1276;140341;-47
2022/05/15 18:28:21;;;;;;;3.10;0.90;;;;;;;16.08;36.33;99767.34;443100;1276;139960;-47
2022/05/15 18:38:27;;;;;;;6.30;1.30;;;;;;;15.58;38.02;99773.50;430611;1276;140839;-47
2022/05/15 18:48:34;;;;;;;6.00;1.10;;;;;;;15.02;39.51;99784.34;431796;1276;140821;-50
2022/05/15 18:58:40;;;;;;;7.00;1.40;;;;;;;14.48;41.46;99795.52;430884;1276;140527;-55
2022/05/15 19:08:45;;;;;;;7.80;1.40;;;;;;;13.98;43.02;99811.48;430697;1276;141617;-49
2022/05/15 19:18:51;;;;;;;6.00;1.90;;;;;;;13.50;44.41;99819.66;429533;1276;140515;-48
2022/05/15 19:28:57;;;;;;;3.20;1.20;;;;;;;13.00;45.76;99818.46;429687;1276;144052;-47
2022/05/15 19:39:04;;;;;;;3.80;1.90;;;;;;;12.58;47.02;99825.70;430308;1276;140691;-46
2022/05/15 19:49:10;;;;;;;8.50;2.20;;;;;;;12.20;48.32;99832.16;430463;1276;141076;-49
2022/05/15 19:59:19;;;;;;;6.00;1.80;;;;;;;11.82;49.58;99835.83;429342;1276;140336;-45
2022/05/15 20:19:50;;;;;;;3.90;1.80;;;;;;;11.18;51.81;99841.28;444953;1275;141399;-51
2022/05/15 20:29:56;;;;;;;7.90;2.70;;;;;;;10.96;52.64;99841.89;445671;1275;142471;-51
2022/05/15 20:40:02;;;;;;;5.30;3.10;;;;;;;10.78;53.28;99846.71;446165;1276;141589;-51
2022/05/15 20:50:09;;;;;;;9.30;3.50;;;;;;;10.58;54.00;99850.16;445537;1275;140859;-49
2022/05/15 21:00:16;;;;;;;8.20;5.40;;;;;;;10.37;54.74;99850.30;446417;1274;141180;-50
2022/05/15 21:10:29;;;;;;;11.30;4.70;;;;;;;10.17;55.30;99848.81;432909;1276;141853;-47
2022/05/15 21:20:36;;;;;;;7.90;4.70;;;;;;;10.00;56.00;99853.27;437239;1276;141366;-52
2022/05/15 21:30:42;;;;;;;6.30;3.30;;;;;;;9.86;56.71;99856.73;432698;1275;140341;-47
2022/05/15 21:51:11;;;;;;;7.90;5.00;;;;;;;9.63;58.13;99856.25;429348;1276;141292;-48
2022/05/15 22:01:17;;;;;;;12.00;5.20;;;;;;;9.51;58.71;99849.90;435036;1276;142401;-46
2022/05/15 22:11:24;;;;;;;10.30;6.40;;;;;;;9.44;59.19;99843.98;429047;1276;142489;-50
2022/05/15 22:21:30;;;;;;;9.70;6.50;;;;;;;9.39;59.67;99842.69;446580;1275;140856;-53
2022/05/15 22:31:36;;;;;;;14.70;8.90;;;;;;;9.31;60.29;99848.36;440740;1274;141507;-50
2022/05/15 22:41:42;;;;;;;11.90;9.00;;;;;;;9.17;60.63;99848.61;435072;1276;141860;-56
2022/05/15 22:51:47;;;;;;;12.50;8.40;;;;;;;8.99;61.36;99846.42;446476;1274;143262;-49
2022/05/15 23:01:54;;;;;;;10.60;8.60;;;;;;;8.78;61.73;99845.09;431217;1276;160951;-50
2022/05/15 23:11:59;;;;;;;12.80;8.70;;;;;;;8.62;62.19;99854.23;432667;1276;142617;-50
2022/05/15 23:22:05;;;;;;;14.80;6.90;;;;;;;8.49;62.68;99861.20;446509;1276;142933;-46
2022/05/15 23:32:14;;;;;;;7.80;6.10;;;;;;;8.42;63.39;99858.41;445772;1276;143449;-49
2022/05/15 23:42:20;;;;;;;8.90;6.90;;;;;;;8.33;63.70;99857.11;444090;1276;141000;-48
2022/05/15 23:52:26;;;;;;;9.70;6.80;;;;;;;8.24;63.81;99859.10;429706;1276;141424;-49
